TJBQ/BQN METAR and TAF weather

Enter ICAO airport designator
Station Type Date Time Source
TJBQ METAR 2021/01/22 00:50 UTC NOAA

TJBQ 220050Z 08008KT 10SM SCT024 SCT031 SCT039 24/21 A3002


Station Type Date Time Source
TJBQ Decoded METAR 2021/01/22 00:50 UTC NOAA

Aquadilla, Rafael Hernandez Airport, PR, United States (TJBQ) 18-30N 067-08W 69M
Jan 21, 2021 - 07:50 PM EST / 2021.01.22 0050 UTC
Wind: from the E (080 degrees) at 9 MPH (8 KT):0
Visibility: 10 mile(s):0
Sky conditions: partly cloudy
Temperature: 75 F (24 C)
Dew Point: 69 F (21 C)
Relative Humidity: 83%
Pressure (altimeter): 30.02 in. Hg (1016 hPa)
ob: TJBQ 220050Z 08008KT 10SM SCT024 SCT031 SCT039 24/21 A3002
cycle: 1

Station Type Date Time Source
TJBQ TAF 2021/01/22 06:28 UTC NOAA

TAF TJBQ 220526Z 2206/2306 VRB05KT P6SM FEW030
FM221430 06012KT P6SM SCT030
FM222300 10005KT P6SM FEW030
AMD NOT SKED TIL 221100

Example: see airport list